Time;durP1;ratioP1;P1;durP2;ratioP2;P2;SDS_P1;SDS_P2;PMS_P1;PMS_P2;Temp;Humidity;BMP_temperature;BMP_pressure;BME280_temperature;BME280_humidity;BME280_pressure;Samples;Min_cycle;Max_cycle;Signal;HPM_P1;HPM_P2
2021/03/19 00:01:41;;;;;;;7.77;5.63;;;;;;;2.86;90.13;98734.84;4908574;28;104657;-75
2021/03/19 00:04:09;;;;;;;6.77;4.97;;;;;;;2.90;89.62;98725.13;4906415;28;103234;-78
2021/03/19 00:06:36;;;;;;;7.47;6.57;;;;;;;2.90;89.00;98725.97;4907938;28;104007;-75
2021/03/19 00:09:07;;;;;;;7.10;6.47;;;;;;;2.88;89.72;98724.34;4906459;28;110433;-77
2021/03/19 00:11:34;;;;;;;6.13;5.30;;;;;;;2.86;89.69;98719.19;4916017;28;103766;-72
2021/03/19 00:14:03;;;;;;;6.43;5.43;;;;;;;2.91;89.55;98717.25;4912146;28;102973;-76
2021/03/19 00:16:30;;;;;;;8.43;5.30;;;;;;;2.97;89.50;98715.31;4908954;28;103069;-71
2021/03/19 00:18:57;;;;;;;7.97;7.17;;;;;;;2.90;89.72;98715.53;4909111;28;104226;-72
2021/03/19 00:21:24;;;;;;;5.93;5.30;;;;;;;2.91;89.26;98711.19;4908027;28;105207;-72
2021/03/19 00:23:52;;;;;;;7.40;6.10;;;;;;;2.99;89.77;98713.47;4909195;28;103041;-72
2021/03/19 00:26:20;;;;;;;7.40;6.20;;;;;;;2.96;89.21;98708.38;4909664;28;103195;-73
2021/03/19 00:28:47;;;;;;;8.83;8.00;;;;;;;2.78;90.60;98716.03;4907460;28;104184;-73
2021/03/19 00:31:14;;;;;;;9.50;7.90;;;;;;;2.78;90.86;98704.75;4908307;28;106146;-73
2021/03/19 00:33:41;;;;;;;7.97;6.30;;;;;;;2.77;91.24;98703.94;4906038;28;103323;-75
2021/03/19 00:36:09;;;;;;;6.83;6.13;;;;;;;2.91;91.62;98705.97;4924568;28;104572;-75
2021/03/19 00:38:36;;;;;;;6.63;6.03;;;;;;;2.97;91.03;98697.03;4921833;28;108310;-75
2021/03/19 00:41:04;;;;;;;6.00;5.40;;;;;;;3.03;90.67;98704.59;4902471;28;105323;-76
2021/03/19 00:43:31;;;;;;;7.60;6.57;;;;;;;2.84;90.34;98705.34;4906767;28;103829;-71
2021/03/19 00:46:00;;;;;;;7.57;6.30;;;;;;;2.91;91.27;98696.38;4912089;28;102703;-76
2021/03/19 00:48:27;;;;;;;6.80;6.10;;;;;;;2.90;91.07;98699.88;4907792;28;103835;-71
2021/03/19 00:50:55;;;;;;;8.03;5.40;;;;;;;2.97;91.06;98694.41;4912704;28;104435;-73
2021/03/19 00:53:22;;;;;;;7.20;6.30;;;;;;;2.95;90.67;98704.09;4923300;28;102890;-74
2021/03/19 00:55:51;;;;;;;8.23;7.13;;;;;;;2.97;90.53;98697.88;4914181;28;102767;-71
2021/03/19 00:58:19;;;;;;;6.27;5.67;;;;;;;3.01;90.46;98703.78;4904959;28;105028;-72
2021/03/19 01:00:46;;;;;;;6.57;5.70;;;;;;;3.04;90.28;98696.69;4908656;28;104741;-78
2021/03/19 01:03:13;;;;;;;8.57;7.67;;;;;;;2.76;89.98;98702.22;4906303;28;102960;-75
2021/03/19 01:05:43;;;;;;;10.40;9.30;;;;;;;2.48;91.82;98696.41;4908815;28;102595;-73
2021/03/19 01:08:12;;;;;;;7.60;6.90;;;;;;;2.36;93.80;98691.66;4905727;28;103840;-77
2021/03/19 01:10:41;;;;;;;9.27;8.27;;;;;;;2.44;94.39;98697.47;4905159;28;104957;-71
2021/03/19 01:13:08;;;;;;;8.30;7.47;;;;;;;2.61;94.03;98686.34;4916663;28;103151;-71
2021/03/19 01:15:37;;;;;;;9.00;8.17;;;;;;;2.51;92.89;98693.69;4925706;28;103615;-72
2021/03/19 01:18:05;;;;;;;8.97;7.63;;;;;;;2.56;93.20;98693.50;4907749;28;104914;-72
2021/03/19 01:20:32;;;;;;;8.40;7.53;;;;;;;2.58;93.35;98686.47;4907890;28;103684;-74
2021/03/19 01:23:00;;;;;;;11.07;8.13;;;;;;;2.55;93.22;98687.44;4907083;28;103152;-71
2021/03/19 01:25:28;;;;;;;8.33;7.53;;;;;;;2.63;93.38;98685.38;4908390;28;103243;-71
2021/03/19 01:27:56;;;;;;;6.77;6.17;;;;;;;2.75;92.90;98679.63;4906523;28;112270;-75
2021/03/19 01:30:25;;;;;;;7.10;6.40;;;;;;;2.80;92.84;98677.72;4907893;28;104146;-71
2021/03/19 01:32:53;;;;;;;8.47;6.80;;;;;;;2.85;92.09;98680.97;4907054;28;103002;-77
2021/03/19 01:35:23;;;;;;;9.80;6.73;;;;;;;2.84;91.64;98684.47;4914242;28;103163;-72
2021/03/19 01:37:51;;;;;;;6.63;6.03;;;;;;;2.82;91.39;98675.03;4924932;28;103766;-75
2021/03/19 01:40:22;;;;;;;11.10;9.73;;;;;;;2.61;92.35;98671.53;4919893;28;103949;-78
2021/03/19 01:42:51;;;;;;;7.53;6.33;;;;;;;2.69;92.71;98668.63;4908966;28;103330;-72
2021/03/19 01:45:51;;;;;;;7.87;5.80;;;;;;;2.73;92.57;98671.03;4907338;28;103207;-71
2021/03/19 01:48:55;;;;;;;9.00;7.03;;;;;;;2.67;92.91;98660.84;4906213;28;104457;-76
2021/03/19 01:52:09;;;;;;;6.97;6.10;;;;;;;2.70;93.39;98655.50;4909261;28;105066;-71
2021/03/19 01:55:14;;;;;;;9.77;8.37;;;;;;;2.75;92.25;98658.75;4925724;28;102561;-77
2021/03/19 01:58:18;;;;;;;9.13;7.23;;;;;;;2.70;92.57;98655.50;4907374;28;103000;-71
2021/03/19 02:01:22;;;;;;;7.57;6.20;;;;;;;2.65;91.91;98651.38;4906009;28;106098;-72
2021/03/19 02:04:27;;;;;;;9.30;8.40;;;;;;;2.32;92.92;98648.41;4918962;28;103675;-71
2021/03/19 02:07:36;;;;;;;9.23;7.20;;;;;;;2.33;94.58;98639.66;4920884;28;102999;-71
2021/03/19 02:10:41;;;;;;;6.80;5.97;;;;;;;2.43;94.57;98641.00;4841058;28;102963;-72
2021/03/19 02:13:45;;;;;;;8.50;7.50;;;;;;;2.27;93.86;98634.72;4904685;28;105300;-71
2021/03/19 02:16:49;;;;;;;10.67;9.20;;;;;;;2.06;94.28;98630.31;4907471;28;103135;-71
2021/03/19 02:19:53;;;;;;;12.20;9.73;;;;;;;1.90;96.12;98640.50;4913632;28;102712;-73
2021/03/19 02:22:58;;;;;;;11.20;8.80;;;;;;;1.67;97.47;98643.97;4907268;28;102585;-76
2021/03/19 02:30:02;;;;;;;13.30;10.43;;;;;;;1.30;99.67;98659.25;4926695;28;103656;-75
2021/03/19 02:32:50;;;;;;;15.07;11.60;;;;;;;1.03;100.00;98649.81;4927061;28;103057;-72
2021/03/19 02:35:20;;;;;;;15.17;11.17;;;;;;;1.21;100.00;98654.34;4907871;28;103082;-72
2021/03/19 02:37:47;;;;;;;12.70;10.37;;;;;;;1.39;100.00;98658.91;4907045;28;114944;-71
2021/03/19 02:40:18;;;;;;;12.10;9.30;;;;;;;1.51;100.00;98653.28;4908578;28;103750;-72
2021/03/19 02:42:45;;;;;;;13.93;11.33;;;;;;;1.60;100.00;98646.88;4910278;28;102833;-71
2021/03/19 02:45:16;;;;;;;11.40;9.23;;;;;;;1.73;100.00;98648.09;4907416;28;103064;-74
2021/03/19 02:47:43;;;;;;;14.23;12.10;;;;;;;1.69;99.35;98647.38;4906134;28;103858;-72
2021/03/19 02:50:13;;;;;;;14.37;11.27;;;;;;;1.69;99.02;98642.16;4899937;28;104767;-71
2021/03/19 02:52:43;;;;;;;11.30;9.73;;;;;;;1.72;98.75;98639.44;4911230;28;102535;-74
2021/03/19 02:55:13;;;;;;;9.97;8.10;;;;;;;1.77;98.65;98641.03;4906545;28;102643;-74
2021/03/19 02:57:40;;;;;;;13.27;10.77;;;;;;;1.80;97.95;98633.94;4904533;28;106504;-72
2021/03/19 03:00:10;;;;;;;16.00;11.07;;;;;;;1.81;97.17;98630.44;4912411;28;104934;-71
2021/03/19 03:02:37;;;;;;;19.27;12.87;;;;;;;1.56;97.08;98625.31;4915356;28;103081;-71
2021/03/19 03:05:06;;;;;;;11.70;10.40;;;;;;;1.57;98.56;98626.97;4907243;28;102651;-72
2021/03/19 03:07:34;;;;;;;15.33;12.77;;;;;;;1.51;98.37;98629.00;4903564;28;103891;-71
2021/03/19 03:10:03;;;;;;;13.80;12.30;;;;;;;1.31;100.00;98634.91;4906457;28;103728;-74
2021/03/19 03:12:32;;;;;;;18.40;13.90;;;;;;;1.28;100.00;98640.25;4906349;28;103274;-71
2021/03/19 03:14:59;;;;;;;17.13;12.80;;;;;;;1.38;100.00;98635.53;4907271;28;103191;-72
2021/03/19 03:17:26;;;;;;;15.83;14.13;;;;;;;1.44;100.00;98641.38;4915934;28;104875;-71
2021/03/19 03:19:53;;;;;;;18.23;14.07;;;;;;;1.43;100.00;98638.84;4925770;28;104489;-71
2021/03/19 03:22:40;;;;;;;16.40;14.10;;;;;;;1.36;100.00;98635.59;4914415;28;102973;-71
2021/03/19 03:25:09;;;;;;;16.10;14.33;;;;;;;1.34;100.00;98640.03;4905346;28;103118;-72
2021/03/19 03:27:36;;;;;;;16.77;14.87;;;;;;;1.43;100.00;98637.06;4896130;28;103328;-71
2021/03/19 03:30:09;;;;;;;19.23;15.10;;;;;;;1.36;100.00;98635.59;4911701;28;103743;-71
2021/03/19 03:32:36;;;;;;;20.00;15.67;;;;;;;1.34;100.00;98637.41;4911245;28;103056;-73
2021/03/19 03:35:07;;;;;;;19.50;16.43;;;;;;;1.35;100.00;98636.50;4914585;28;103091;-71
2021/03/19 03:37:34;;;;;;;17.93;14.83;;;;;;;1.46;100.00;98634.34;4923085;28;103854;-71
2021/03/19 03:40:04;;;;;;;22.27;16.27;;;;;;;1.43;100.00;98629.25;4911449;28;103850;-71
2021/03/19 03:42:31;;;;;;;19.20;15.77;;;;;;;1.41;100.00;98635.41;4910678;28;104353;-71
2021/03/19 03:44:58;;;;;;;19.53;16.80;;;;;;;1.29;100.00;98636.75;4922935;28;102985;-71
2021/03/19 03:47:26;;;;;;;21.20;16.10;;;;;;;1.23;100.00;98636.97;4930769;28;104936;-71
2021/03/19 03:49:54;;;;;;;18.30;15.60;;;;;;;1.27;100.00;98641.13;4930179;28;104833;-72
2021/03/19 03:52:21;;;;;;;19.13;15.23;;;;;;;1.27;100.00;98633.31;4926613;28;103076;-71
2021/03/19 03:54:48;;;;;;;20.43;15.30;;;;;;;1.16;100.00;98631.13;4912332;28;103122;-71
2021/03/19 03:57:16;;;;;;;20.93;17.17;;;;;;;1.29;100.00;98639.34;4912825;28;103408;-71
2021/03/19 03:59:43;;;;;;;17.87;15.13;;;;;;;1.40;100.00;98628.53;4928753;28;104924;-71
2021/03/19 04:05:44;;;;;;;18.60;14.53;;;;;;;1.56;100.00;98630.50;4843805;29;102802;-71
2021/03/19 04:08:32;;;;;;;20.77;15.10;;;;;;;1.60;100.00;98624.28;4860634;28;104809;-71
2021/03/19 04:11:01;;;;;;;17.67;13.43;;;;;;;1.52;100.00;98626.31;4879342;28;103684;-71
2021/03/19 04:13:30;;;;;;;19.30;15.00;;;;;;;1.55;100.00;98626.19;4892334;28;102632;-72
2021/03/19 04:15:59;;;;;;;18.97;14.57;;;;;;;1.65;100.00;98635.38;4892521;28;102773;-71
2021/03/19 04:18:28;;;;;;;17.90;14.73;;;;;;;1.73;100.00;98635.94;4890596;28;103282;-71
2021/03/19 04:20:58;;;;;;;19.13;15.60;;;;;;;1.72;100.00;98633.38;4891511;28;104803;-71
2021/03/19 04:23:28;;;;;;;15.93;13.90;;;;;;;1.83;100.00;98627.75;4892136;28;102636;-71
2021/03/19 04:25:56;;;;;;;17.87;15.43;;;;;;;1.85;100.00;98625.97;4900538;28;103070;-74
2021/03/19 04:28:30;;;;;;;17.10;13.53;;;;;;;1.93;99.97;98618.69;4903583;28;104320;-71
2021/03/19 04:30:58;;;;;;;22.53;17.60;;;;;;;1.79;99.77;98620.97;4890079;28;105788;-72
2021/03/19 04:33:26;;;;;;;28.20;18.07;;;;;;;1.55;100.00;98628.81;4890260;28;103481;-72
2021/03/19 04:36:04;;;;;;;20.80;17.43;;;;;;;1.44;100.00;98630.97;4890359;28;103084;-72
2021/03/19 04:38:31;;;;;;;25.03;18.37;;;;;;;1.29;100.00;98630.69;4898376;28;104911;-71
2021/03/19 04:40:58;;;;;;;25.47;19.70;;;;;;;1.24;100.00;98638.63;4886738;28;105132;-72
2021/03/19 04:43:25;;;;;;;24.90;19.80;;;;;;;1.16;100.00;98635.47;4890543;28;103550;-71
2021/03/19 04:45:52;;;;;;;24.30;18.93;;;;;;;1.25;100.00;98634.28;4907617;28;102822;-71
2021/03/19 04:48:20;;;;;;;25.17;19.50;;;;;;;1.31;100.00;98627.13;4903897;28;104644;-71
2021/03/19 04:50:47;;;;;;;24.00;19.53;;;;;;;1.29;100.00;98636.75;4892470;28;103671;-73
2021/03/19 04:53:14;;;;;;;27.97;21.43;;;;;;;1.22;100.00;98637.84;4891623;28;102928;-70
2021/03/19 04:55:41;;;;;;;25.30;19.20;;;;;;;1.26;100.00;98636.00;4907239;28;103593;-71
2021/03/19 04:58:08;;;;;;;28.20;19.27;;;;;;;1.12;100.00;98639.09;4892555;28;103163;-71
2021/03/19 05:00:35;;;;;;;23.40;17.87;;;;;;;1.10;100.00;98630.47;4899606;28;103782;-71
2021/03/19 05:03:03;;;;;;;25.03;19.83;;;;;;;1.15;100.00;98639.00;4896668;28;103093;-70
2021/03/19 05:05:33;;;;;;;24.00;18.93;;;;;;;1.24;100.00;98643.84;4895192;28;103137;-71
2021/03/19 05:08:02;;;;;;;30.13;21.80;;;;;;;1.16;100.00;98644.13;4910913;28;104858;-71
2021/03/19 05:11:24;;;;;;;27.40;21.17;;;;;;;1.09;100.00;98639.19;4911345;28;103037;-71
2021/03/19 05:14:11;;;;;;;26.23;20.73;;;;;;;1.18;100.00;98644.91;4910696;28;102908;-71
2021/03/19 05:20:57;;;;;;;25.17;19.83;;;;;;;1.21;100.00;98643.94;4929861;28;104673;-71
2021/03/19 05:23:31;;;;;;;26.13;18.77;;;;;;;1.14;100.00;98645.09;4930345;28;103795;-72
2021/03/19 05:25:58;;;;;;;25.53;19.83;;;;;;;1.23;100.00;98647.38;4926874;28;103033;-73
2021/03/19 05:28:26;;;;;;;26.00;18.90;;;;;;;1.29;100.00;98649.75;4909770;28;104553;-75
2021/03/19 05:30:54;;;;;;;26.57;20.17;;;;;;;1.31;100.00;98653.16;4910591;28;103534;-73
2021/03/19 05:33:21;;;;;;;24.87;19.07;;;;;;;1.44;100.00;98650.94;4909595;28;103775;-73
2021/03/19 05:35:49;;;;;;;30.80;23.60;;;;;;;1.44;100.00;98643.13;4909628;28;103160;-71
2021/03/19 05:38:17;;;;;;;29.27;22.23;;;;;;;1.39;100.00;98647.66;4927436;28;104534;-72
2021/03/19 05:40:46;;;;;;;32.67;25.63;;;;;;;1.36;100.00;98648.63;4923537;28;104120;-75
2021/03/19 05:47:48;;;;;;;32.07;25.03;;;;;;;1.31;100.00;98660.94;4910190;28;102540;-70
2021/03/19 05:51:17;;;;;;;31.03;21.70;;;;;;;1.24;100.00;98667.25;4911763;28;103045;-70
2021/03/19 06:04:32;;;;;;;26.27;21.13;;;;;;;1.48;100.00;98684.63;4870195;28;102689;-70
2021/03/19 06:07:03;;;;;;;23.03;18.87;;;;;;;1.48;100.00;98684.63;4870064;28;103159;-69
2021/03/19 06:10:16;;;;;;;28.43;24.37;;;;;;;1.59;100.00;98685.09;4869333;28;103783;-69
2021/03/19 06:13:08;;;;;;;31.10;25.97;;;;;;;1.60;100.00;98697.19;4872012;28;103655;-69
2021/03/19 06:19:35;;;;;;;30.97;24.40;;;;;;;1.61;100.00;98709.31;4860744;28;103304;-69
2021/03/19 06:22:16;;;;;;;22.60;17.80;;;;;;;1.73;100.00;98701.06;4863288;28;104834;-73
2021/03/19 06:24:59;;;;;;;27.43;20.43;;;;;;;1.79;100.00;98696.53;4864049;28;104146;-72
2021/03/19 06:31:26;;;;;;;25.87;19.53;;;;;;;1.92;100.00;98708.19;4850423;29;103142;-72
2021/03/19 06:44:24;;;;;;;27.50;23.53;;;;;;;2.21;100.00;98700.13;4853341;28;103273;-73
2021/03/19 06:46:54;;;;;;;24.27;19.97;;;;;;;2.27;100.00;98702.50;4848499;28;103134;-74
2021/03/19 06:49:23;;;;;;;24.67;19.37;;;;;;;2.50;100.00;98699.78;4906397;28;103968;-81
2021/03/19 06:51:52;;;;;;;21.13;16.47;;;;;;;2.63;100.00;98703.63;4901327;28;104518;-74
2021/03/19 06:54:22;;;;;;;25.43;18.57;;;;;;;2.74;100.00;98701.44;4905274;28;103541;-72
2021/03/19 06:57:05;;;;;;;21.07;16.53;;;;;;;2.84;100.00;98700.13;4913174;28;103182;-73
2021/03/19 06:59:42;;;;;;;27.00;20.73;;;;;;;2.98;99.55;98706.53;4927243;28;103897;-74
2021/03/19 07:02:53;;;;;;;21.27;18.57;;;;;;;3.08;98.99;98708.72;4899026;28;104562;-71
2021/03/19 07:05:39;;;;;;;24.93;22.07;;;;;;;2.92;98.65;98705.03;4908138;28;102986;-71
2021/03/19 07:08:30;;;;;;;22.93;19.47;;;;;;;3.06;99.47;98709.69;4891606;28;103655;-76
2021/03/19 07:11:12;;;;;;;24.93;22.23;;;;;;;3.02;99.56;98713.34;4909070;28;103865;-73
2021/03/19 07:13:51;;;;;;;28.70;24.27;;;;;;;3.07;99.59;98706.16;4902854;28;103877;-75
2021/03/19 07:16:25;;;;;;;23.53;18.83;;;;;;;3.24;98.90;98706.28;4922986;28;103014;-76
2021/03/19 07:19:15;;;;;;;26.27;23.47;;;;;;;3.28;97.93;98710.47;4921500;28;103232;-72
2021/03/19 07:21:58;;;;;;;20.70;17.63;;;;;;;3.09;96.52;98717.41;4906452;28;104105;-75
2021/03/19 07:24:41;;;;;;;22.67;18.47;;;;;;;2.75;96.70;98713.56;4908060;28;105324;-75
2021/03/19 07:27:26;;;;;;;22.17;18.40;;;;;;;2.82;96.93;98719.38;4907983;28;103366;-78
2021/03/19 07:30:03;;;;;;;23.30;18.60;;;;;;;2.72;97.19;98726.72;4905240;28;103235;-74
2021/03/19 07:32:52;;;;;;;22.87;17.93;;;;;;;2.63;98.46;98723.66;4907931;28;105312;-75
2021/03/19 07:35:49;;;;;;;22.43;19.20;;;;;;;2.58;98.92;98720.38;4892585;28;103742;-74
2021/03/19 07:38:42;;;;;;;21.10;16.60;;;;;;;2.97;99.72;98725.75;4902478;28;102999;-77
2021/03/19 07:41:24;;;;;;;19.27;16.83;;;;;;;3.04;98.34;98737.59;4917161;28;102715;-74
2021/03/19 07:44:14;;;;;;;21.47;16.73;;;;;;;2.89;96.45;98733.88;4909333;28;103907;-75
2021/03/19 07:46:53;;;;;;;23.13;17.73;;;;;;;2.44;98.88;98739.19;4903782;28;106090;-76
2021/03/19 07:49:49;;;;;;;20.03;17.27;;;;;;;2.36;99.13;98733.41;4895292;28;102839;-76
2021/03/19 07:52:34;;;;;;;18.33;15.33;;;;;;;2.62;99.73;98735.84;4903070;28;104314;-73
2021/03/19 07:55:07;;;;;;;18.47;15.93;;;;;;;2.55;99.07;98733.53;4905996;28;106290;-75
2021/03/19 07:57:43;;;;;;;20.90;17.00;;;;;;;2.64;98.35;98731.41;4902486;28;105482;-75
2021/03/19 08:00:18;;;;;;;21.70;16.87;;;;;;;2.72;99.48;98737.16;4923939;28;102581;-76
2021/03/19 08:03:03;;;;;;;20.90;16.57;;;;;;;2.82;99.17;98743.72;4906089;28;103357;-76
2021/03/19 08:05:39;;;;;;;20.73;16.00;;;;;;;2.71;98.55;98745.91;4893603;28;103876;-75
2021/03/19 08:08:16;;;;;;;20.00;16.37;;;;;;;2.53;98.73;98738.81;4896711;28;104300;-75
2021/03/19 08:10:58;;;;;;;22.03;16.93;;;;;;;2.57;100.00;98748.22;4907894;28;104439;-75
2021/03/19 08:13:36;;;;;;;21.37;16.93;;;;;;;2.67;100.00;98743.47;4908820;28;103499;-75
2021/03/19 08:16:10;;;;;;;20.13;15.67;;;;;;;2.63;99.00;98745.38;4906369;28;104574;-75
2021/03/19 08:18:47;;;;;;;20.37;16.00;;;;;;;2.49;99.32;98749.44;4908710;28;103628;-75
2021/03/19 08:21:31;;;;;;;22.67;17.47;;;;;;;2.19;99.93;98756.69;4902031;28;102541;-75
2021/03/19 08:24:13;;;;;;;19.87;15.53;;;;;;;2.47;100.00;98746.84;4917007;28;103337;-75
2021/03/19 08:26:51;;;;;;;20.00;15.23;;;;;;;2.55;99.83;98755.25;4907630;28;103985;-75
2021/03/19 08:29:29;;;;;;;20.20;15.83;;;;;;;2.65;99.47;98753.97;4909190;28;103870;-75
2021/03/19 08:32:05;;;;;;;19.63;15.13;;;;;;;2.69;98.95;98752.97;4922101;28;102982;-75
2021/03/19 08:34:40;;;;;;;18.80;15.43;;;;;;;2.60;98.93;98760.28;4914327;28;102595;-75
2021/03/19 08:37:25;;;;;;;20.30;16.37;;;;;;;2.62;100.00;98764.53;4919237;28;103944;-75
2021/03/19 08:39:53;;;;;;;21.33;17.17;;;;;;;2.66;98.96;98763.50;4923786;28;102594;-75
2021/03/19 08:42:28;;;;;;;18.53;15.87;;;;;;;2.71;100.00;98765.94;4909462;28;103374;-75
2021/03/19 08:44:59;;;;;;;20.63;17.07;;;;;;;2.59;100.00;98767.25;4916400;28;103038;-76
2021/03/19 08:47:32;;;;;;;19.30;16.97;;;;;;;2.42;100.00;98768.81;4923309;28;105207;-75
2021/03/19 08:50:11;;;;;;;22.40;17.67;;;;;;;2.54;100.00;98778.78;4905343;28;103785;-74
2021/03/19 08:52:41;;;;;;;25.00;17.80;;;;;;;2.70;100.00;98770.28;4909517;28;103330;-75
2021/03/19 08:55:24;;;;;;;19.93;16.20;;;;;;;2.91;100.00;98773.81;4922561;28;103378;-75
2021/03/19 08:57:54;;;;;;;19.57;15.60;;;;;;;2.96;100.00;98781.44;4905598;28;105240;-76
2021/03/19 09:00:57;;;;;;;17.07;14.53;;;;;;;2.98;99.23;98785.69;4913507;28;103782;-75
2021/03/19 09:03:51;;;;;;;17.20;14.97;;;;;;;3.09;98.91;98782.66;4900975;28;103270;-75
2021/03/19 09:06:34;;;;;;;18.83;15.37;;;;;;;3.38;100.00;98784.91;4890169;28;103594;-74
2021/03/19 09:09:34;;;;;;;16.30;14.30;;;;;;;2.94;96.12;98789.34;4887634;28;104997;-75
2021/03/19 09:12:11;;;;;;;14.57;11.93;;;;;;;3.01;96.00;98789.94;4901542;28;104543;-76
2021/03/19 09:14:51;;;;;;;16.27;13.23;;;;;;;2.96;97.23;98791.88;4908869;28;102956;-76
2021/03/19 09:17:50;;;;;;;14.73;12.20;;;;;;;2.88;95.86;98795.66;4906313;28;103251;-76
2021/03/19 09:20:41;;;;;;;13.33;11.93;;;;;;;2.80;96.89;98789.91;4914249;28;105419;-77
2021/03/19 09:23:20;;;;;;;12.80;11.40;;;;;;;2.78;96.11;98799.53;4911030;28;104512;-75
2021/03/19 09:25:55;;;;;;;14.83;12.43;;;;;;;2.80;97.22;98797.72;4918237;28;102620;-74
2021/03/19 09:28:56;;;;;;;11.33;10.13;;;;;;;2.75;95.37;98804.88;4918901;28;104369;-79
2021/03/19 09:31:40;;;;;;;12.47;11.17;;;;;;;2.52;93.96;98807.53;4908384;28;103190;-74
2021/03/19 09:34:24;;;;;;;13.80;11.87;;;;;;;2.75;94.84;98799.66;4909041;28;103799;-73
2021/03/19 09:37:05;;;;;;;11.73;10.37;;;;;;;2.62;92.95;98802.81;4924130;28;103329;-73
2021/03/19 09:40:00;;;;;;;12.60;11.10;;;;;;;2.91;92.09;98802.53;4907127;28;102865;-73
2021/03/19 09:42:52;;;;;;;14.23;10.57;;;;;;;2.93;90.97;98801.53;4902956;28;103875;-73
2021/03/19 09:45:29;;;;;;;12.33;11.00;;;;;;;3.70;90.43;98799.22;4885155;28;105219;-82
2021/03/19 09:48:13;;;;;;;12.73;10.83;;;;;;;3.75;90.57;98808.56;4917723;28;104290;-76
2021/03/19 09:50:53;;;;;;;11.60;10.40;;;;;;;3.85;90.09;98804.63;4904247;28;103235;-74
2021/03/19 09:53:29;;;;;;;11.73;10.53;;;;;;;3.45;89.04;98810.69;4906282;28;103874;-73
2021/03/19 09:55:58;;;;;;;11.17;10.00;;;;;;;3.87;89.52;98801.94;4906102;28;104897;-75
2021/03/19 09:58:36;;;;;;;12.10;10.67;;;;;;;4.00;89.70;98813.56;4910886;28;103567;-72
2021/03/19 10:01:10;;;;;;;12.13;10.93;;;;;;;3.90;89.76;98807.88;4907785;28;102784;-79
2021/03/19 10:03:43;;;;;;;10.80;9.70;;;;;;;3.92;88.74;98807.81;4896025;28;108014;-71
2021/03/19 10:06:26;;;;;;;11.73;10.57;;;;;;;3.44;90.00;98816.00;4897795;28;103683;-76
2021/03/19 10:09:10;;;;;;;11.17;10.00;;;;;;;3.53;89.94;98827.81;4911029;28;102972;-71
2021/03/19 10:12:00;;;;;;;11.57;10.30;;;;;;;3.39;88.94;98825.78;4889936;28;104571;-73
2021/03/19 10:14:35;;;;;;;10.77;9.67;;;;;;;3.44;90.33;98831.66;4921498;28;104124;-77
2021/03/19 10:17:15;;;;;;;11.47;10.27;;;;;;;3.61;91.87;98829.19;4907656;28;103276;-75
2021/03/19 10:19:46;;;;;;;10.33;9.17;;;;;;;3.58;89.71;98829.31;4907689;28;103074;-75
2021/03/19 10:22:29;;;;;;;13.13;9.67;;;;;;;3.70;91.70;98839.28;4905317;28;102896;-74
2021/03/19 10:25:13;;;;;;;10.70;9.60;;;;;;;3.98;91.92;98826.72;4903380;28;104376;-78
2021/03/19 10:27:47;;;;;;;11.47;10.27;;;;;;;3.98;91.30;98829.31;4888445;28;104229;-74
2021/03/19 10:30:21;;;;;;;12.53;11.23;;;;;;;4.31;90.20;98831.34;4863740;28;102744;-76
2021/03/19 10:32:49;;;;;;;11.70;10.33;;;;;;;4.01;88.96;98833.56;4903646;28;103247;-78
2021/03/19 10:35:21;;;;;;;9.67;8.67;;;;;;;4.22;92.65;98832.59;4906326;28;105221;-74
2021/03/19 10:37:53;;;;;;;10.63;9.57;;;;;;;4.24;89.60;98845.63;4900278;28;104806;-75
2021/03/19 10:40:27;;;;;;;7.33;6.63;;;;;;;3.70;91.30;98830.56;4890706;28;103229;-74
2021/03/19 10:43:01;;;;;;;6.33;5.80;;;;;;;3.63;90.28;98845.66;4910942;28;103129;-76
2021/03/19 10:45:37;;;;;;;5.70;5.20;;;;;;;3.57;90.11;98835.44;4905377;28;104042;-75
2021/03/19 10:48:14;;;;;;;5.30;4.80;;;;;;;3.21;89.01;98831.75;4901624;28;104792;-74
2021/03/19 10:50:55;;;;;;;5.60;5.10;;;;;;;3.24;89.48;98844.69;4914670;28;103286;-73
2021/03/19 10:53:33;;;;;;;5.97;5.37;;;;;;;3.32;90.58;98843.47;4888913;28;103175;-73
2021/03/19 10:56:03;;;;;;;5.37;4.87;;;;;;;3.14;89.76;98833.78;4897327;28;103596;-76
2021/03/19 10:58:38;;;;;;;7.07;5.53;;;;;;;3.38;89.54;98837.13;4913193;28;104910;-77
2021/03/19 11:01:35;;;;;;;5.23;4.73;;;;;;;3.77;88.52;98840.69;4914500;28;102543;-74
2021/03/19 11:04:24;;;;;;;4.80;4.30;;;;;;;3.56;86.32;98845.97;4907342;28;103455;-76
2021/03/19 11:06:53;;;;;;;4.93;4.53;;;;;;;3.30;86.74;98847.06;4906424;28;103942;-76
2021/03/19 11:09:23;;;;;;;5.33;4.87;;;;;;;3.35;88.28;98850.31;4913994;28;104877;-76
2021/03/19 11:11:55;;;;;;;4.87;4.47;;;;;;;3.47;88.85;98852.44;4907818;28;103085;-79
2021/03/19 11:14:26;;;;;;;4.47;4.07;;;;;;;3.42;87.45;98870.06;4909984;28;103262;-84
2021/03/19 11:16:56;;;;;;;5.07;4.27;;;;;;;3.69;87.20;98863.69;4912064;28;103382;-75
2021/03/19 11:19:26;;;;;;;6.60;4.70;;;;;;;3.51;88.08;98860.06;4913699;28;103768;-75
2021/03/19 11:22:02;;;;;;;4.50;4.10;;;;;;;4.05;88.23;98859.50;4908455;28;104190;-76
2021/03/19 11:24:33;;;;;;;5.13;4.63;;;;;;;4.10;86.34;98865.38;4898916;28;103287;-77
2021/03/19 11:27:18;;;;;;;5.77;5.27;;;;;;;4.48;87.54;98865.44;4906232;28;103560;-74
2021/03/19 11:29:46;;;;;;;6.30;5.20;;;;;;;3.66;87.10;98869.03;4920053;28;113515;-80
2021/03/19 11:32:32;;;;;;;6.20;4.87;;;;;;;3.59;88.45;98870.22;4910562;28;103252;-76
2021/03/19 11:35:17;;;;;;;5.40;4.90;;;;;;;3.53;88.06;98873.09;4900250;28;103376;-79
2021/03/19 11:37:46;;;;;;;6.13;5.53;;;;;;;3.62;88.07;98877.09;4904090;28;103886;-73
2021/03/19 11:40:34;;;;;;;6.07;5.00;;;;;;;3.65;89.15;98877.78;4909782;28;103739;-76
2021/03/19 11:43:03;;;;;;;6.50;5.90;;;;;;;3.32;89.82;98890.47;4904052;28;103104;-74
2021/03/19 11:45:36;;;;;;;8.53;6.60;;;;;;;3.09;88.38;98898.34;4906281;28;103091;-74
2021/03/19 11:48:28;;;;;;;7.23;6.53;;;;;;;3.34;87.95;98895.66;4913243;28;106017;-76
2021/03/19 11:51:13;;;;;;;7.23;6.07;;;;;;;3.67;86.18;98894.28;4920545;28;104350;-78
2021/03/19 11:53:42;;;;;;;7.10;6.30;;;;;;;3.29;86.06;98897.56;4920836;28;103586;-73
2021/03/19 11:56:16;;;;;;;7.93;6.70;;;;;;;3.55;88.98;98901.75;4909373;28;103226;-75
2021/03/19 11:58:43;;;;;;;9.03;8.13;;;;;;;2.95;94.63;98910.25;4920577;28;104982;-77
2021/03/19 12:01:11;;;;;;;8.67;7.77;;;;;;;2.66;95.12;98912.22;4920451;28;104702;-80
2021/03/19 12:03:41;;;;;;;9.27;7.93;;;;;;;2.54;95.55;98914.41;4907592;28;103097;-79
2021/03/19 12:06:12;;;;;;;8.77;7.87;;;;;;;2.55;95.35;98913.50;4901377;28;103397;-77
2021/03/19 12:08:40;;;;;;;9.53;7.80;;;;;;;2.60;94.36;98911.56;4905233;28;105586;-78
2021/03/19 12:11:09;;;;;;;9.87;8.37;;;;;;;2.61;92.79;98905.47;4907856;28;103764;-78
2021/03/19 12:13:39;;;;;;;8.87;7.60;;;;;;;2.65;91.56;98910.50;4905582;28;103055;-78
2021/03/19 12:16:07;;;;;;;10.87;8.33;;;;;;;2.75;89.62;98917.06;4894029;28;102815;-76
2021/03/19 12:18:34;;;;;;;14.67;8.43;;;;;;;2.81;89.01;98910.75;4906219;28;104542;-78
2021/03/19 12:21:03;;;;;;;11.23;9.33;;;;;;;2.68;87.83;98918.22;4889344;28;105048;-74
2021/03/19 12:23:30;;;;;;;10.87;8.47;;;;;;;2.70;87.58;98921.59;4906526;28;103180;-75
2021/03/19 12:25:57;;;;;;;11.60;9.77;;;;;;;2.65;87.63;98912.25;4891805;28;104217;-81
2021/03/19 12:28:25;;;;;;;14.07;11.27;;;;;;;2.72;88.22;98919.78;4906537;28;105054;-80
2021/03/19 12:30:54;;;;;;;11.73;9.57;;;;;;;2.74;88.06;98933.66;4905648;28;105309;-73
2021/03/19 12:33:24;;;;;;;15.97;11.70;;;;;;;2.83;88.68;98922.00;4905930;28;103053;-73
2021/03/19 12:35:52;;;;;;;13.27;10.97;;;;;;;2.68;89.19;98927.78;4904165;28;103617;-72
2021/03/19 12:38:20;;;;;;;17.50;11.73;;;;;;;2.79;89.36;98923.88;4901856;28;103906;-72
2021/03/19 12:40:48;;;;;;;15.67;11.43;;;;;;;2.72;88.49;98934.63;4907004;28;103720;-72
2021/03/19 12:43:16;;;;;;;14.33;11.73;;;;;;;2.76;87.94;98930.97;4910694;28;103161;-71
2021/03/19 12:45:44;;;;;;;15.07;11.70;;;;;;;2.75;87.71;98930.09;4905211;28;103221;-73